.
WxDataArchive / Data Records for 2013-11-09
2013-11-08 November 2013 2013-11-10

Data Records for Saturday, 09 November 2013

Time	Temp	Chill	HIndex	Humid	Dewpt	 Wind 	HiWind	WindDir	Rain 	Barom 
-----	----	-----	------	-----	-----	------	------	-------	-----	----- 
00:00	41.5	41.5	41.5	63	29.9	0	0	---	0.00	30.162 
00:05	41.5	41.5	41.5	63	29.9	0	1	338	0.00	30.162 
00:10	41.6	41.6	41.6	62	29.6	0	3	68	0.00	30.162 
00:15	41.8	41.8	41.8	61	29.4	0	2	45	0.00	30.151 
00:20	41.9	41.9	41.9	60	29.0	0	1	45	0.00	30.151 
00:25	42.1	42.1	42.1	60	29.2	0	1	45	0.00	30.151 
00:30	42.2	42.2	42.2	59	28.9	0	4	90	0.00	30.145 
00:35	42.3	42.3	42.3	59	29.0	1	3	90	0.00	30.145 
00:40	42.5	42.5	42.5	58	28.8	1	4	112	0.00	30.145 
00:45	42.5	42.5	42.5	58	28.8	0	4	112	0.00	30.141 
00:50	42.3	42.3	42.3	58	28.6	0	1	90	0.00	30.141 
00:55	42.3	42.3	42.3	59	29.0	0	2	90	0.00	30.141 
01:00	42.2	42.2	42.2	59	28.9	0	2	315	0.00	30.143 
01:05	42.2	42.2	42.2	59	28.9	0	1	315	0.00	30.143 
01:10	42.2	42.2	42.2	59	28.9	0	3	315	0.00	30.143 
01:15	42.2	42.2	42.2	59	28.9	0	2	22	0.00	30.131 
01:20	42.2	42.2	42.2	59	28.9	0	2	45	0.00	30.131 
01:25	42.2	42.2	42.2	59	28.9	0	3	45	0.00	30.131 
01:30	42.2	42.2	42.2	59	28.9	0	3	45	0.00	30.122 
01:35	42.2	42.2	42.2	59	28.9	0	3	90	0.00	30.122 
01:40	42.3	42.3	42.3	58	28.6	0	4	90	0.00	30.122 
01:45	42.3	42.3	42.3	58	28.6	1	3	90	0.00	30.112 
01:50	42.5	42.5	42.5	58	28.8	1	3	90	0.00	30.112 
01:55	42.5	42.5	42.5	58	28.8	1	2	90	0.00	30.112 
02:00	42.5	42.5	42.5	59	29.2	0	3	90	0.00	30.098 
02:05	42.5	42.5	42.5	58	28.8	1	4	90	0.00	30.098 
02:10	42.6	42.6	42.6	58	28.9	0	3	90	0.00	30.098 
02:15	42.6	42.6	42.6	58	28.9	0	3	90	0.00	30.092 
02:20	42.5	42.5	42.5	58	28.8	1	5	90	0.00	30.092 
02:25	42.6	42.6	42.6	58	28.9	1	7	90	0.00	30.092 
02:30	42.6	42.6	42.6	58	28.9	1	3	135	0.00	30.079 
02:35	42.6	42.6	42.6	58	28.9	1	2	112	0.00	30.079 
02:40	42.6	42.6	42.6	58	28.9	0	3	90	0.00	30.079 
02:45	42.6	42.6	42.6	58	28.9	0	3	68	0.00	30.079 
02:50	42.8	42.8	42.8	58	29.1	0	2	68	0.00	30.079 
02:55	42.8	42.8	42.8	59	29.5	1	3	68	0.00	30.079 
03:00	42.6	42.6	42.6	58	28.9	0	2	68	0.00	30.078 
03:05	42.6	42.6	42.6	59	29.3	0	3	292	0.00	30.078 
03:10	42.6	42.6	42.6	59	29.3	0	3	315	0.00	30.078 
03:15	42.6	42.6	42.6	58	28.9	1	4	90	0.00	30.069 
03:20	42.6	42.6	42.6	58	28.9	1	4	45	0.00	30.069 
03:25	42.6	42.6	42.6	59	29.3	0	2	315	0.00	30.069 
03:30	42.6	42.6	42.6	59	29.3	0	2	315	0.00	30.062 
03:35	42.6	42.6	42.6	59	29.3	0	4	90	0.00	30.062 
03:40	42.6	42.6	42.6	59	29.3	0	2	90	0.00	30.062 
03:45	42.5	42.5	42.5	59	29.2	0	2	90	0.00	30.058 
03:50	42.5	42.5	42.5	59	29.2	1	4	90	0.00	30.058 
03:55	42.6	42.6	42.6	59	29.3	1	5	90	0.00	30.058 
04:00	42.6	42.6	42.6	59	29.3	0	2	45	0.00	30.051 
04:05	42.6	42.6	42.6	59	29.3	0	2	315	0.00	30.051 
04:10	42.6	42.6	42.6	59	29.3	0	1	315	0.00	30.051 
04:15	42.6	42.6	42.6	59	29.3	1	6	68	0.00	30.049 
04:20	42.6	42.6	42.6	59	29.3	0	2	68	0.00	30.049 
04:25	42.6	42.6	42.6	59	29.3	0	2	68	0.00	30.049 
04:30	42.6	42.6	42.6	59	29.3	0	1	68	0.00	30.039 
04:35	42.6	42.6	42.6	59	29.3	0	2	45	0.00	30.039 
04:40	42.8	42.8	42.8	58	29.1	0	7	248	0.00	30.039 
04:45	42.8	42.8	42.8	59	29.5	0	3	248	0.00	30.036 
04:50	42.8	42.8	42.8	58	29.1	0	2	248	0.00	30.036 
04:55	42.8	42.8	42.8	58	29.1	0	1	248	0.00	30.036 
05:00	42.8	42.8	42.8	58	29.1	0	3	248	0.00	30.033 
05:05	42.9	42.9	42.9	57	28.7	0	4	248	0.00	30.033 
05:10	42.9	42.9	42.9	57	28.7	0	1	248	0.00	30.033 
05:15	43.1	43.1	43.1	56	28.5	0	3	248	0.00	30.033 
05:20	43.2	43.2	43.2	56	28.6	0	2	270	0.00	30.033 
05:25	43.2	43.2	43.2	55	28.1	0	2	270	0.00	30.033 
05:30	43.2	43.2	43.2	56	28.6	0	3	270	0.00	30.031 
05:35	43.3	43.3	43.3	55	28.2	0	2	270	0.00	30.031 
05:40	43.5	43.5	43.5	54	28.0	1	4	68	0.00	30.031 
05:45	43.8	43.8	43.8	54	28.3	1	3	248	0.00	30.022 
05:50	43.9	43.9	43.9	54	28.3	0	3	270	0.00	30.022 
05:55	43.9	43.9	43.9	54	28.3	0	3	270	0.00	30.022 
06:00	43.9	43.9	43.9	54	28.3	1	3	270	0.00	30.018 
06:05	43.9	43.9	43.9	54	28.3	1	3	270	0.00	30.018 
06:10	44.1	44.1	44.1	54	28.5	0	4	270	0.00	30.018 
06:15	43.9	43.9	43.9	53	27.9	0	2	315	0.00	30.016 
06:20	44.1	44.1	44.1	54	28.5	0	4	315	0.00	30.016 
06:25	44.1	44.1	44.1	54	28.5	1	3	248	0.00	30.016 
06:30	43.9	43.9	43.9	54	28.3	1	4	270	0.00	30.007 
06:35	43.9	43.9	43.9	54	28.3	0	3	292	0.00	30.007 
06:40	43.8	43.8	43.8	54	28.3	0	4	270	0.00	30.007 
06:45	43.8	43.8	43.8	54	28.3	1	5	270	0.00	30.003 
06:50	43.8	43.8	43.8	54	28.3	1	5	248	0.00	30.003 
06:55	43.6	43.6	43.6	54	28.1	1	5	270	0.00	30.003 
07:00	43.8	43.8	43.8	54	28.3	1	4	270	0.00	29.997 
07:05	43.8	43.8	43.8	54	28.3	0	5	248	0.00	29.997 
07:10	43.8	43.8	43.8	54	28.3	1	3	248	0.00	29.997 
07:15	43.9	43.9	43.9	54	28.3	1	5	248	0.00	29.994 
07:20	44.2	44.2	44.2	53	28.2	1	5	270	0.00	29.994 
07:25	44.5	44.5	44.5	53	28.4	1	4	270	0.00	29.994 
07:30	44.6	44.6	44.6	53	28.5	2	6	248	0.00	29.991 
07:35	44.6	44.6	44.6	53	28.5	2	9	270	0.00	29.991 
07:40	44.8	44.8	44.8	53	28.7	1	9	248	0.00	29.991 
07:45	44.8	44.8	44.8	52	28.3	2	8	248	0.00	29.993 
07:50	44.9	44.9	44.9	52	28.4	2	7	248	0.00	29.993 
07:55	44.9	44.9	44.9	52	28.4	2	7	248	0.00	29.993 
08:00	44.8	44.8	44.8	53	28.7	1	5	248	0.00	29.994 
08:05	44.8	44.8	44.8	53	28.7	2	6	248	0.00	29.994 
08:10	44.9	44.9	44.9	53	28.8	2	7	248	0.00	29.994 
08:15	45.1	45.1	45.1	53	29.0	2	5	248	0.00	29.990 
08:20	45.2	45.2	45.2	53	29.1	1	4	248	0.00	29.990 
08:25	45.4	45.4	45.4	52	28.8	2	10	248	0.00	29.990 
08:30	45.4	45.4	45.4	53	29.3	2	7	248	0.00	29.989 
08:35	45.5	45.5	45.5	52	28.9	2	10	248	0.00	29.989 
08:40	45.5	45.5	45.5	53	29.4	2	7	248	0.00	29.989 
08:45	45.7	45.7	45.7	53	29.6	2	9	248	0.00	29.988 
08:50	45.7	45.7	45.7	53	29.6	2	12	248	0.00	29.988 
08:55	45.8	44.0	45.8	53	29.7	4	11	248	0.00	29.988 
09:00	46.1	46.1	46.1	53	29.9	2	9	248	0.00	29.986 
09:05	46.2	46.2	46.2	53	30.0	2	9	270	0.00	29.986 
09:10	46.4	44.7	46.4	53	30.2	4	11	270	0.00	29.986 
09:15	46.7	46.7	46.7	53	30.5	3	10	270	0.00	29.979 
09:20	46.8	46.8	46.8	53	30.6	2	6	270	0.00	29.979 
09:37	47.0	47.0	47.0	53	30.8	2	9	248	0.00	29.979 
10:01	47.4	47.4	47.4	54	31.6	3	9	248	0.00	29.963 
10:05	48.9	48.9	48.9	54	33.0	3	8	248	0.00	29.953 
10:10	49.1	49.1	49.1	54	33.2	3	10	248	0.00	29.953 
10:15	49.4	48.2	49.4	54	33.5	4	11	248	0.00	29.952 
10:20	49.6	49.6	49.6	54	33.6	3	10	248	0.00	29.952 
10:25	49.9	49.9	49.9	53	33.5	3	12	270	0.00	29.952 
10:30	50.1	50.1	50.1	54	34.1	2	10	248	0.00	29.949 
10:35	50.4	50.4	50.4	53	33.9	4	11	248	0.00	29.949 
10:40	50.5	50.5	50.5	54	34.5	4	12	248	0.00	29.949 
10:45	51.0	51.0	51.0	54	34.9	2	6	248	0.00	29.939 
10:50	51.3	51.3	51.3	54	35.2	3	8	248	0.00	29.939 
10:55	51.6	51.6	51.6	54	35.5	3	9	270	0.00	29.939 
11:00	52.0	52.0	52.0	53	35.4	2	7	270	0.00	29.934 
11:05	52.5	52.5	52.5	53	35.9	4	10	248	0.00	29.934 
11:10	52.8	52.8	52.8	52	35.7	4	11	248	0.00	29.934 
11:15	52.9	52.9	52.9	53	36.2	3	7	248	0.00	29.931 
11:20	53.2	53.2	53.2	52	36.0	4	10	248	0.00	29.931 
11:25	53.5	53.5	53.5	53	36.8	2	7	248	0.00	29.931 
11:30	53.6	53.6	53.6	51	35.9	4	11	248	0.00	29.926 
11:35	53.6	53.6	53.6	52	36.4	4	11	248	0.00	29.926 
11:40	53.9	53.9	53.9	52	36.7	3	10	270	0.00	29.926 
11:45	53.9	53.9	53.9	52	36.7	4	12	270	0.00	29.920 
11:50	54.1	54.1	54.1	51	36.4	5	12	248	0.00	29.920 
11:55	54.2	54.2	54.2	52	37.0	4	10	248	0.00	29.920 
12:00	54.7	54.7	54.7	52	37.4	2	7	270	0.00	29.915 
12:05	55.1	55.1	55.1	51	37.3	2	7	248	0.00	29.915 
12:10	55.4	55.4	55.4	51	37.6	2	6	248	0.00	29.915 
12:15	55.7	55.7	55.7	50	37.3	4	9	270	0.00	29.900 
12:20	55.9	55.9	55.9	51	38.0	2	10	248	0.00	29.900 
12:25	55.9	55.9	55.9	51	38.0	3	7	270	0.00	29.900 
12:30	56.3	56.3	56.3	52	38.9	2	5	270	0.00	29.896 
12:35	56.6	56.6	56.6	50	38.2	3	10	248	0.00	29.896 
12:40	56.6	56.6	56.6	50	38.2	4	9	248	0.00	29.896 
12:45	56.7	56.7	56.7	50	38.3	3	9	270	0.00	29.891 
12:50	57.2	57.2	57.2	50	38.7	1	6	248	0.00	29.891 
12:55	57.6	57.6	57.6	49	38.6	2	9	270	0.00	29.891 
13:00	57.6	57.6	57.6	49	38.6	3	6	248	0.00	29.886 
13:05	57.6	57.6	57.6	49	38.6	4	10	248	0.00	29.886 
13:10	57.5	57.5	57.5	48	38.0	4	9	270	0.00	29.886 
13:15	57.6	57.6	57.6	50	39.1	3	7	270	0.00	29.884 
13:20	57.8	57.8	57.8	50	39.3	3	7	270	0.00	29.884 
13:25	57.8	57.8	57.8	47	37.7	5	13	270	0.00	29.884 
13:30	57.8	57.8	57.8	49	38.8	4	13	270	0.00	29.886 
13:35	58.0	58.0	58.0	49	38.9	4	9	270	0.00	29.886 
13:40	58.0	58.0	58.0	49	38.9	4	9	270	0.00	29.886 
13:45	58.1	58.1	58.1	48	38.5	4	10	270	0.00	29.882 
13:50	58.0	58.0	58.0	48	38.4	5	11	270	0.00	29.882 
13:55	58.0	58.0	58.0	48	38.4	4	10	270	0.00	29.882 
14:00	58.0	58.0	58.0	47	37.9	5	12	270	0.00	29.885 
14:05	58.0	58.0	58.0	47	37.9	5	12	270	0.00	29.885 
14:10	58.3	58.3	58.3	48	38.7	4	9	270	0.00	29.885 
14:15	58.4	58.4	58.4	47	38.2	4	12	270	0.00	29.881 
14:20	58.9	58.9	58.9	48	39.2	2	8	270	0.00	29.881 
14:25	58.9	58.9	58.9	47	38.7	3	12	248	0.00	29.881 
14:30	58.9	58.9	58.9	47	38.7	4	11	270	0.00	29.879 
14:35	58.9	58.9	58.9	48	39.2	3	8	270	0.00	29.879 
14:40	59.2	59.2	59.2	47	39.0	3	9	248	0.00	29.879 
14:45	59.2	59.2	59.2	45	37.9	5	13	270	0.00	29.880 
14:50	58.9	58.9	58.9	47	38.7	5	12	248	0.00	29.880 
14:55	58.9	58.9	58.9	46	38.2	4	10	270	0.00	29.880 
15:00	59.2	59.2	59.2	46	38.4	6	13	270	0.00	29.879 
15:05	59.2	59.2	59.2	45	37.9	5	12	270	0.00	29.879 
15:10	58.7	58.7	58.7	46	38.0	5	10	270	0.00	29.879 
15:15	59.0	59.0	59.0	46	38.2	4	10	270	0.00	29.885 
15:20	59.0	59.0	59.0	45	37.7	5	10	270	0.00	29.885 
15:25	59.3	59.3	59.3	46	38.5	3	7	270	0.00	29.885 
15:30	59.5	59.5	59.5	45	38.1	5	10	248	0.00	29.882 
15:35	59.0	59.0	59.0	45	37.7	4	10	270	0.00	29.882 
15:40	59.0	59.0	59.0	46	38.2	3	8	270	0.00	29.882 
15:45	59.0	59.0	59.0	46	38.2	2	7	270	0.00	29.887 
15:50	59.0	59.0	59.0	46	38.2	3	7	270	0.00	29.887 
15:55	58.7	58.7	58.7	46	38.0	4	9	270	0.00	29.887 
16:00	58.9	58.9	58.9	46	38.2	4	15	270	0.00	29.884 
16:05	59.0	59.0	59.0	46	38.2	3	10	270	0.00	29.884 
16:10	58.9	58.9	58.9	46	38.2	4	10	248	0.00	29.884 
16:15	58.9	58.9	58.9	46	38.2	4	11	248	0.00	29.890 
16:20	58.9	58.9	58.9	45	37.6	4	10	270	0.00	29.890 
16:25	58.9	58.9	58.9	45	37.6	4	12	248	0.00	29.890 
16:30	58.7	58.7	58.7	45	37.4	3	11	248	0.00	29.890 
16:35	58.7	58.7	58.7	45	37.4	4	12	270	0.00	29.890 
16:40	58.7	58.7	58.7	46	38.0	3	7	270	0.00	29.890 
16:45	58.6	58.6	58.6	46	37.9	3	7	270	0.00	29.890 
16:50	58.4	58.4	58.4	46	37.7	2	9	248	0.00	29.890 
16:55	58.3	58.3	58.3	46	37.6	4	11	270	0.00	29.890 
17:00	58.1	58.1	58.1	47	38.0	2	6	248	0.00	29.894 
17:05	58.0	58.0	58.0	47	37.9	2	5	248	0.00	29.894 
17:10	57.8	57.8	57.8	47	37.7	2	11	248	0.00	29.894 
17:15	57.6	57.6	57.6	48	38.1	2	7	248	0.00	29.896 
17:20	57.5	57.5	57.5	48	38.0	2	7	270	0.00	29.896 
17:25	57.3	57.3	57.3	49	38.3	2	5	248	0.00	29.896 
17:30	57.2	57.2	57.2	49	38.2	1	4	248	0.00	29.900 
17:35	57.0	57.0	57.0	49	38.0	1	4	270	0.00	29.900 
17:40	56.9	56.9	56.9	50	38.5	2	6	248	0.00	29.900 
17:45	56.7	56.7	56.7	50	38.3	1	4	248	0.00	29.909 
17:50	56.7	56.7	56.7	50	38.3	1	5	248	0.00	29.909 
17:55	56.9	56.9	56.9	50	38.5	2	9	248	0.00	29.909 
18:00	56.9	56.9	56.9	50	38.5	1	5	248	0.00	29.912 
18:05	56.7	56.7	56.7	50	38.3	1	4	248	0.00	29.912 
18:10	56.7	56.7	56.7	50	38.3	2	6	248	0.00	29.912 
18:15	56.7	56.7	56.7	51	38.8	2	5	248	0.00	29.916 
18:20	56.7	56.7	56.7	50	38.3	3	8	248	0.00	29.916 
18:25	56.7	56.7	56.7	51	38.8	1	4	270	0.00	29.916 
18:30	56.6	56.6	56.6	51	38.7	1	5	270	0.00	29.926 
18:35	56.5	56.5	56.5	51	38.6	2	5	270	0.00	29.926 
18:40	56.3	56.3	56.3	51	38.4	1	5	248	0.00	29.926 
18:45	56.0	56.0	56.0	52	38.6	1	5	248	0.00	29.928 
18:50	55.9	55.9	55.9	52	38.5	2	7	248	0.00	29.928 
18:55	55.7	55.7	55.7	51	37.9	3	9	248	0.00	29.928 
19:00	55.7	55.7	55.7	50	37.3	3	9	270	0.00	29.939 
19:05	55.6	55.6	55.6	50	37.3	2	5	270	0.00	29.939 
19:10	55.4	55.4	55.4	50	37.1	2	5	248	0.00	29.939 
19:15	55.3	55.3	55.3	50	37.0	2	5	270	0.00	29.943 
19:20	55.0	55.0	55.0	50	36.7	2	4	248	0.00	29.943 
19:25	54.8	54.8	54.8	51	37.0	2	6	270	0.00	29.943 
19:30	54.8	54.8	54.8	51	37.0	2	5	270	0.00	29.948 
19:35	54.7	54.7	54.7	51	36.9	2	6	270	0.00	29.948 
19:40	54.4	54.4	54.4	52	37.1	2	6	270	0.00	29.948 
19:45	54.5	54.5	54.5	51	36.7	4	9	270	0.00	29.957 
19:50	54.4	54.4	54.4	51	36.7	2	5	270	0.00	29.957 
19:55	54.2	54.2	54.2	51	36.5	3	6	270	0.00	29.957 
20:00	54.1	54.1	54.1	52	36.9	3	6	248	0.00	29.959 
20:05	53.9	53.9	53.9	52	36.7	2	4	248	0.00	29.959 
20:10	53.6	53.6	53.6	53	36.9	2	5	248	0.00	29.959 
20:15	53.5	53.5	53.5	53	36.8	2	6	270	0.00	29.959 
20:20	53.2	53.2	53.2	54	37.0	2	5	270	0.00	29.959 
20:25	53.1	53.1	53.1	54	36.9	1	3	270	0.00	29.959 
20:30	52.8	52.8	52.8	54	36.6	1	3	270	0.00	29.961 
20:35	52.5	52.5	52.5	55	36.8	1	4	248	0.00	29.961 
20:40	52.3	52.3	52.3	56	37.1	1	3	248	0.00	29.961 
20:45	52.2	52.2	52.2	56	37.0	1	4	248	0.00	29.960 
20:50	52.0	52.0	52.0	56	36.8	1	4	248	0.00	29.960 
20:55	52.0	52.0	52.0	57	37.2	1	4	248	0.00	29.960 
21:00	51.7	51.7	51.7	57	37.0	1	5	248	0.00	29.962 
21:05	51.6	51.6	51.6	57	36.9	1	4	292	0.00	29.962 
21:10	51.4	51.4	51.4	58	37.1	0	2	292	0.00	29.962 
21:15	51.3	51.3	51.3	58	37.0	1	3	292	0.00	29.968 
21:20	51.1	51.1	51.1	58	36.8	1	4	270	0.00	29.968 
21:25	51.1	51.1	51.1	59	37.3	1	4	270	0.00	29.968 
21:30	51.0	51.0	51.0	59	37.2	2	5	270	0.00	29.975 
21:35	51.0	51.0	51.0	59	37.2	1	4	248	0.00	29.975 
21:40	50.8	50.8	50.8	60	37.4	1	4	270	0.00	29.975 
21:45	50.7	50.7	50.7	60	37.3	2	4	248	0.00	29.977 
21:50	50.5	50.5	50.5	60	37.1	1	4	270	0.00	29.977 
21:55	50.4	50.4	50.4	60	37.0	1	4	270	0.00	29.977 
22:00	50.2	50.2	50.2	61	37.3	2	5	270	0.00	29.979 
22:05	50.1	50.1	50.1	61	37.2	1	4	248	0.00	29.979 
22:10	50.1	50.1	50.1	61	37.2	2	5	248	0.00	29.979 
22:15	50.1	50.1	50.1	61	37.2	2	5	248	0.00	29.975 
22:20	50.1	50.1	50.1	61	37.2	2	5	248	0.00	29.975 
22:25	50.1	50.1	50.1	60	36.8	3	5	292	0.00	29.975 
22:30	49.9	49.9	49.9	60	36.6	3	6	270	0.00	29.976 
22:35	49.9	49.9	49.9	60	36.6	3	9	270	0.00	29.976 
22:40	50.1	50.1	50.1	59	36.3	3	7	292	0.00	29.976 
22:45	50.1	50.1	50.1	59	36.3	4	9	270	0.00	29.978 
22:50	50.1	50.1	50.1	58	35.9	4	9	270	0.00	29.978 
22:55	50.1	50.1	50.1	58	35.9	4	8	270	0.00	29.978 
23:00	50.1	50.1	50.1	59	36.3	4	10	270	0.00	29.977 
23:05	49.9	48.8	49.9	59	36.1	4	11	270	0.00	29.977 
23:10	49.8	48.6	49.8	59	36.1	4	9	270	0.00	29.977 
23:15	49.8	48.6	49.8	59	36.1	4	7	270	0.00	29.977 
23:20	49.6	47.7	49.6	60	36.3	5	11	270	0.00	29.977 
23:25	49.5	48.3	49.5	60	36.2	4	6	292	0.00	29.977 
23:30	49.4	49.4	49.4	61	36.5	3	6	270	0.00	29.981 
23:35	49.2	47.9	49.2	62	36.7	4	8	270	0.00	29.981 
23:40	49.2	47.9	49.2	61	36.3	4	7	270	0.00	29.981 
23:45	49.1	49.1	49.1	62	36.6	3	9	270	0.00	29.986 
23:50	48.9	48.9	48.9	62	36.5	3	6	270	0.00	29.986 
23:55	48.6	48.6	48.6	62	36.2	3	6	270	0.00	29.986 

CoCoRaHS
IN-AL-39
A2 Web Hosting
Creative Commons License
GoDaddy
search engine by freefind advanced

loaded 2018-11-14 00:40:22 • last modified 2010-11-18 10:43:29
Privacy PolicyDisclaimer
• wx.awcolley.com is powered by PmWiki v.2002016 •
• all content (unless otherwise noted) © 2018 A W Colley